Home > Products > Valid Products > MTR

000
SAUS43 KUNR 011001
MTR2WX
METAR K2WX 010956Z AUTO 06005KT 17/08 A3001 RMK AO1 SLP139 T01670083





000
SAUS43 KUNR 010959
MTRD07
METAR KD07 010956Z AUTO 16010KT 16/12 A3005 RMK AO1 SLP161 T01560122





000
SAUS43 KUNR 010902 COR
MTR2WX
METAR K2WX 010856Z AUTO 03004KT 17/08 A3001 RMK AO1 SLP136 T01720083
55006





000
SAUS43 KUNR 010901 COR
MTR2WX
METAR K2WX 010856Z AUTO 03004KT 17/08 A3001 RMK AO1 SLP136 T01720083
55006





000
SAUS43 KUNR 010859
MTRD07
METAR KD07 010856Z AUTO 17012KT 16/12 A3005 RMK AO1 SLP161 T01560122
56007





000
SAUS43 KUNR 010800
MTR2WX
METAR K2WX 010756Z AUTO 29005KT 18/08 A3001 RMK AO1 SLP135 T01830083





000
SAUS43 KUNR 010759
MTRD07
METAR KD07 010756Z AUTO 17011KT 16/12 A3006 RMK AO1 SLP163 T01560122





000
SAUS43 KUNR 010700
MTR2WX
METAR K2WX 010656Z AUTO 22005KT 17/08 A3001 RMK AO1 SLP140 T01670083
403220117





000
SAUS43 KUNR 010659
MTRD07
METAR KD07 010656Z AUTO 17012KT 17/13 A3007 RMK AO1 SLP166 T01670128
403170139





000
SAUS43 KUNR 010600
MTR2WX
METAR K2WX 010556Z AUTO 19007KT 18/09 A3002 RMK AO1 SLP145 T01780089
10289 20167 51006





000
SAUS43 KUNR 010559
MTRD07
METAR KD07 010556Z AUTO 15009KT 18/13 A3008 RMK AO1 SLP170 T01780128
10300 20167 51003





000
SAUS43 KUNR 010500
MTR2WX
METAR K2WX 010456Z AUTO 17003KT 18/08 A3002 RMK AO1 SLP144 T01830083





000
SAUS43 KUNR 010459
MTRD07
METAR KD07 010456Z AUTO 15009KT 18/13 A3007 RMK AO1 SLP168 T01830128





000
SAUS43 KUNR 010400
MTR2WX
METAR K2WX 010356Z AUTO 17006KT 20/08 A3002 RMK AO1 SLP144 T02000083





000
SAUS43 KUNR 010359
MTRD07
METAR KD07 010356Z AUTO 13010KT 23/13 A3007 RMK AO1 SLP166 T02280128





000
SAUS43 KUNR 010300
MTR2WX
METAR K2WX 010256Z AUTO 13006KT 22/09 A3001 RMK AO1 SLP140 T02220094
55005





000
SAUS43 KUNR 010259
MTRD07
METAR KD07 010256Z AUTO 13009KT 23/13 A3006 RMK AO1 SLP165 T02280128
53001





000
SAUS43 KUNR 010200
MTR2WX
METAR K2WX 010156Z AUTO 17006KT 24/09 A3000 RMK AO1 SLP139 T02390094





000
SAUS43 KUNR 010159
MTRD07
METAR KD07 010156Z AUTO 10006KT 25/12 A3005 RMK AO1 SLP162 T02500117





000
SAUS43 KUNR 010100
MTR2WX
METAR K2WX 010056Z AUTO 19008KT 27/09 A3001 RMK AO1 SLP141 T02670089





000
SAUS43 KUNR 010059
MTRD07
METAR KD07 010056Z AUTO 07007KT 29/11 A3006 RMK AO1 SLP164 T02890106





000
SAUS43 KUNR 010000
MTR2WX
METAR K2WX 312356Z AUTO 22011KT 29/06 A3002 RMK AO1 SLP147 T02890061
10322 20267 58009





000
SAUS43 KUNR 312359
MTRD07
METAR KD07 312356Z AUTO 02010G14KT 30/09 A3006 RMK AO1 SLP166
T03000089 10317 20272 58008





000
SAUS43 KUNR 312300
MTR2WX
METAR K2WX 312256Z AUTO 08003KT 28/11 A3004 RMK AO1 SLP152 T02780106





000
SAUS43 KUNR 312259
MTRD07
METAR KD07 312256Z AUTO 01011G17KT 31/09 A3007 RMK AO1 SLP170
T03060089





000
SAUS43 KUNR 312200
MTR2WX
METAR K2WX 312156Z AUTO 36005KT 29/08 A3005 RMK AO1 SLP154 T02890083





000
SAUS43 KUNR 312159
MTRD07
METAR KD07 312156Z AUTO 01013KT 31/08 A3008 RMK AO1 SLP172 T03060083





000
SAUS43 KUNR 312102 COR
MTR2WX
METAR K2WX 312056Z AUTO 26007KT 32/07 A3005 RMK AO1 SLP155 T03170072
56007





000
SAUS43 KUNR 312101 COR
MTR2WX
METAR K2WX 312056Z AUTO 26007KT 32/07 A3005 RMK AO1 SLP155 T03170072
56007





000
SAUS43 KUNR 312100
MTR2WX
METAR K2WX 312056Z AUTO 26007KT 32/07 A3005 RMK AO1 SLP155 T03170072
56007





000
SAUS43 KUNR 312059
MTRD07
METAR KD07 312056Z AUTO 33010G16KT 31/09 A3009 RMK AO1 SLP172
T03110094 56007





000
SAUS43 KUNR 312000
MTR2WX
METAR K2WX 311956Z AUTO VRB05KT 31/08 A3006 RMK AO1 SLP156 T03110078





000
SAUS43 KUNR 311959
MTRD07
METAR KD07 311956Z AUTO 33013KT 31/10 A3009 RMK AO1 SLP172 T03110100





000
SAUS43 KUNR 311900
MTR2WX
METAR K2WX 311856Z AUTO VRB03KT 30/08 A3007 RMK AO1 SLP159 T03000083





000
SAUS43 KUNR 311859
MTRD07
METAR KD07 311856Z AUTO 00000KT 29/09 A3010 RMK AO1 SLP175 T02890094





000
SAUS43 KUNR 311800
MTR2WX
METAR K2WX 311756Z AUTO 21003KT 29/09 A3008 RMK AO1 SLP162 T02890089
10294 20139 58007





000
SAUS43 KUNR 311759
MTRD07
METAR KD07 311756Z AUTO VRB04KT 27/11 A3011 RMK AO1 SLP180 T02720106
10278 20139 57007





000
SAUS43 KUNR 311701
MTR2WX
METAR K2WX 311656Z AUTO 22004KT 28/09 A3009 RMK AO1 SLP166 T02780094





000
SAUS43 KUNR 311659
MTRD07
METAR KD07 311656Z AUTO 34004KT 27/11 A3012 RMK AO1 SLP184 T02720106





000
SAUS43 KUNR 311600
MTR2WX
METAR K2WX 311556Z AUTO VRB03KT 25/10 A3009 RMK AO1 SLP168 T02500100





000
SAUS43 KUNR 311559
MTRD07
METAR KD07 311556Z AUTO VRB04KT 26/12 A3012 RMK AO1 SLP187 T02560117





000
SAUS43 KUNR 311500
MTR2WX
METAR K2WX 311456Z AUTO 22003KT 22/13 A3010 RMK AO1 SLP172 T02170128
58004





000
SAUS43 KUNR 311459
MTRD07
METAR KD07 311456Z AUTO 32008KT 23/12 A3013 RMK AO1 SLP190 T02330122
58000





000
SAUS43 KUNR 311401
MTR2WX
METAR K2WX 311356Z AUTO 23004KT 17/13 A3011 RMK AO1 SLP180 T01720128





000
SAUS43 KUNR 311359
MTRD07
METAR KD07 311356Z AUTO 34005KT 20/13 A3014 RMK AO1 SLP193 T02000128





000
SAUS43 KUNR 311300
MTR2WX
METAR K2WX 311256Z AUTO 00000KT 17/11 A3013 RMK AO1 SLP183 T01720111
$





000
SAUS43 KUNR 311259
MTRD07
METAR KD07 311256Z AUTO 32007KT 16/12 A3014 RMK AO1 SLP193 T01560117





000
SAUS43 KUNR 311201
MTR2WX
METAR K2WX 311156Z AUTO 01012KT 14/10 A3011 RMK AO1 SLP180 T01390100
10194 20117 51010 $





000
SAUS43 KUNR 311159
MTRD07
METAR KD07 311156Z AUTO 31009KT 14/11 A3013 RMK AO1 SLP192 T01390111
10194 20139 53007





000
SAUS43 KUNR 311100
MTR2WX
METAR K2WX 311056Z AUTO 04011KT 15/10 A3010 RMK AO1 SLP175 T01500100
$





000
SAUS43 KUNR 311059
MTRD07
METAR KD07 311056Z AUTO 32007KT 14/11 A3012 RMK AO1 SLP189 T01390111





000
SAUS43 KUNR 311000
MTR2WX
METAR K2WX 310956Z AUTO 01004KT 14/10 A3009 RMK AO1 SLP169 T01440100
$





000
SAUS43 KUNR 310959
MTRD07
METAR KD07 310956Z AUTO 30003KT 15/13 A3011 RMK AO1 SLP184 T01500128





000
SAUS43 KUNR 310902 COR
MTR2WX
METAR K2WX 310856Z AUTO 27004KT 15/11 A3008 RMK AO1 SLP166 T01500106
58008 $





000
SAUS43 KUNR 310901 COR
MTR2WX
METAR K2WX 310856Z AUTO 27004KT 15/11 A3008 RMK AO1 SLP166 T01500106
58008 $





000
SAUS43 KUNR 310859
MTRD07
METAR KD07 310856Z AUTO 00000KT 16/12 A3011 RMK AO1 SLP183 T01560122
56008





000
SAUS43 KUNR 310801
MTR2WX
METAR K2WX 310756Z AUTO 26004KT 16/11 A3009 RMK AO1 SLP170 T01560111
$





000
SAUS43 KUNR 310759
MTRD07
METAR KD07 310756Z AUTO 09003KT 19/13 A3011 RMK AO1 SLP181 T01890128





000
SAUS43 KUNR 310701
MTR2WX
METAR K2WX 310656Z AUTO 24003KT 19/11 A3010 RMK AO1 SLP171 T01890111
402830111 $





000
SAUS43 KUNR 310659
MTRD07
METAR KD07 310656Z AUTO 07004KT 19/13 A3012 RMK AO1 SLP185 T01940128
402940128





000
SAUS43 KUNR 310601
MTR2WX
METAR K2WX 310556Z AUTO 27004KT 19/11 A3011 RMK AO1 SLP174 T01890111
10278 20183 $





000
SAUS43 KUNR 310559
MTRD07
METAR KD07 310556Z AUTO 05004KT 19/13 A3014 RMK AO1 SLP192 T01890128
10283 20183 50003





000
SAUS43 KUNR 310500
MTR2WX
METAR K2WX 310456Z AUTO 00000KT 21/11 A3012 RMK AO1 SLP176 T02110111
$





000
SAUS43 KUNR 310459
MTRD07
METAR KD07 310456Z AUTO 02005KT 18/13 A3014 RMK AO1 SLP194 T01830128





000
SAUS43 KUNR 310400
MTR2WX
METAR K2WX 310356Z AUTO 00000KT 23/11 A3012 RMK AO1 SLP177 T02280111
$





000
SAUS43 KUNR 310400
MTR2WX
METAR K2WX 310356Z AUTO 00000KT 23/11 A3012 RMK AO1 SLP177 T02280111
$





000
SAUS43 KUNR 310359
MTRD07
METAR KD07 310356Z AUTO 03007KT 19/13 A3014 RMK AO1 SLP195 T01940128





000
SAUS43 KUNR 310359
MTRD07
METAR KD07 310356Z AUTO 03007KT 19/13 A3014 RMK AO1 SLP195 T01940128





000
SAUS43 KUNR 310300
MTR2WX
METAR K2WX 310256Z AUTO 10006KT 23/11 A3011 RMK AO1 SLP177 T02280106
53003





000
SAUS43 KUNR 310259
MTRD07
METAR KD07 310256Z AUTO 02007KT 21/13 A3013 RMK AO1 SLP191 T02060128
53006





000
SAUS43 KUNR 310200
MTR2WX
METAR K2WX 310156Z AUTO 09007KT 23/11 A3010 RMK AO1 SLP176 T02330111





000
SAUS43 KUNR 310159
MTRD07
METAR KD07 310156Z AUTO 02007KT 24/13 A3012 RMK AO1 SLP186 T02390133





000
SAUS43 KUNR 310100
MTR2WX
METAR K2WX 310056Z AUTO 07007KT 26/11 A3010 RMK AO1 SLP176 T02610106





000
SAUS43 KUNR 310059
MTRD07
METAR KD07 310056Z AUTO 06007KT 27/12 A3011 RMK AO1 SLP183 T02720117





000
SAUS43 KUNR 310002 COR
MTR2WX
METAR K2WX 302356Z AUTO 08006KT 27/10 A3010 RMK AO1 SLP179 T02720100
10283 20256 56006





000
SAUS43 KUNR 310001 COR
MTR2WX
METAR K2WX 302356Z AUTO 08006KT 27/10 A3010 RMK AO1 SLP179 T02720100
10283 20256 56006





000
SAUS43 KUNR 302359
MTRD07
METAR KD07 302356Z AUTO 04009KT 28/11 A3011 RMK AO1 SLP184 T02830111
10294 20256 58005





000
SAUS43 KUNR 302300
MTR2WX
METAR K2WX 302256Z AUTO 03009KT 28/10 A3011 RMK AO1 SLP179 T02780100





000
SAUS43 KUNR 302259
MTRD07
METAR KD07 302256Z AUTO VRB03KT 29/11 A3011 RMK AO1 SLP185 T02890111





000
SAUS43 KUNR 302200
MTR2WX
METAR K2WX 302156Z AUTO 36011KT 28/10 A3011 RMK AO1 SLP178 T02830100





000
SAUS43 KUNR 302159
MTRD07
METAR KD07 302156Z AUTO 02009KT 29/11 A3012 RMK AO1 SLP185 T02940111





000
SAUS43 KUNR 302102 COR
MTR2WX
METAR K2WX 302056Z AUTO 03012G16KT 28/09 A3012 RMK AO1 SLP180
T02830094 56005





000
SAUS43 KUNR 302101 COR
MTR2WX
METAR K2WX 302056Z AUTO 03012G16KT 28/09 A3012 RMK AO1 SLP180
T02830094 56005





000
SAUS43 KUNR 302059
MTRD07
METAR KD07 302056Z AUTO 03007KT 330V060 29/11 A3012 RMK AO1 SLP187
T02890111 56007





000
SAUS43 KUNR 302000
MTR2WX
METAR K2WX 301956Z AUTO 36011KT 28/09 A3012 RMK AO1 SLP181 T02780089





000
SAUS43 KUNR 301959
MTRD07
METAR KD07 301956Z AUTO 33007KT 28/12 A3013 RMK AO1 SLP190 T02830117





000
SAUS43 KUNR 301900
MTR2WX
METAR K2WX 301856Z AUTO VRB04KT 27/08 A3013 RMK AO1 SLP184 T02670083





000
SAUS43 KUNR 301859
MTRD07
METAR KD07 301856Z AUTO VRB04KT 27/14 A3014 RMK AO1 SLP193 T02720139





000
SAUS43 KUNR 301800
MTR2WX
METAR K2WX 301756Z AUTO 36010KT 26/09 A3014 RMK AO1 SLP187 T02560094
10261 20111 58002





000
SAUS43 KUNR 301759
MTRD07
METAR KD07 301756Z AUTO 31008KT 26/13 A3015 RMK AO1 SLP195 T02560133
10261 20133 58004





000
SAUS43 KUNR 301700
MTR2WX
METAR K2WX 301656Z AUTO 33010KT 25/11 A3015 RMK AO1 SLP190 T02500106





000
SAUS43 KUNR 301659
MTRD07
METAR KD07 301656Z AUTO 35007KT 24/13 A3016 RMK AO1 SLP201 T02440133





000
SAUS43 KUNR 301600
MTR2WX
METAR K2WX 301556Z AUTO 36009KT 24/12 A3014 RMK AO1 SLP188 T02390122





000
SAUS43 KUNR 301559
MTRD07
METAR KD07 301556Z AUTO 31006KT 22/13 A3016 RMK AO1 SLP201 T02220128





000
SAUS43 KUNR 301500
MTR2WX
METAR K2WX 301456Z AUTO 02006KT 22/13 A3015 RMK AO1 SLP189 T02170128
51005





000
SAUS43 KUNR 301459
MTRD07
METAR KD07 301456Z AUTO 26004KT 21/13 A3016 RMK AO1 SLP203 T02110133
50000





000
SAUS43 KUNR 301400
MTR2WX
METAR K2WX 301356Z AUTO 00000KT 18/13 A3014 RMK AO1 SLP188 T01830128





000
SAUS43 KUNR 301359
MTRD07
METAR KD07 301356Z AUTO 20006KT 18/13 A3016 RMK AO1 SLP203 T01830128





000
SAUS43 KUNR 301300
MTR2WX
METAR K2WX 301256Z AUTO 32005KT 13/11 A3014 RMK AO1 SLP192 T01330106





000
SAUS43 KUNR 301259
MTRD07
METAR KD07 301256Z AUTO 18008KT 16/12 A3016 RMK AO1 SLP201 T01560117





000
SAUS43 KUNR 301202 COR
MTR2WX
METAR K2WX 301156Z AUTO 00000KT 12/10 A3013 RMK AO1 SLP186 T01170100
10172 20111 52006





000
SAUS43 KUNR 301201 COR
MTR2WX
METAR K2WX 301156Z AUTO 00000KT 12/10 A3013 RMK AO1 SLP186 T01170100
10172 20111 52006





000
SAUS43 KUNR 301159
MTRD07
METAR KD07 301156Z AUTO 17010KT 14/11 A3016 RMK AO1 SLP202 T01390106
10189 20128 56001





000
SAUS43 KUNR 301100
MTR2WX
METAR K2WX 301056Z AUTO 27003KT 12/09 A3012 RMK AO1 SLP184 T01170094





000
SAUS43 KUNR 301059
MTRD07
METAR KD07 301056Z AUTO 15011KT 14/11 A3016 RMK AO1 SLP203 T01390106





000
SAUS43 KUNR 301003
MTR2WX
METAR K2WX 300956Z AUTO 00000KT 15/09 A3011 RMK AO1 SLP178 T01500094





000
SAUS43 KUNR 300959
MTRD07
METAR KD07 300956Z AUTO 15008KT 16/11 A3016 RMK AO1 SLP201 T01610111





000
SAUS43 KUNR 300900
MTR2WX
METAR K2WX 300856Z AUTO 29004KT 16/09 A3011 RMK AO1 SLP175 T01610094
58001





000
SAUS43 KUNR 300859
MTRD07
METAR KD07 300856Z AUTO 17007KT 16/11 A3016 RMK AO1 SLP202 T01560111
56005





000
SAUS43 KUNR 300800
MTR2WX
METAR K2WX 300756Z AUTO 30006KT 16/11 A3011 RMK AO1 SLP178 T01610106





000
SAUS43 KUNR 300702 COR
MTR2WX
METAR K2WX 300656Z AUTO 28007KT 17/11 A3012 RMK AO1 SLP179 T01670111
403000128





000
SAUS43 KUNR 300701 COR
MTR2WX
METAR K2WX 300656Z AUTO 28007KT 17/11 A3012 RMK AO1 SLP179 T01670111
403000128





000
SAUS43 KUNR 300700
MTR2WX
METAR K2WX 300656Z AUTO 28007KT 17/11 A3012 RMK AO1 SLP179 T01670111
403000128





000
SAUS43 KUNR 300602 COR
MTR2WX
METAR K2WX 300556Z AUTO 29011KT 17/11 A3011 RMK AO1 SLP178 T01670106
10278 20167 50000





000
SAUS43 KUNR 300601 COR
MTR2WX
METAR K2WX 300556Z AUTO 29011KT 17/11 A3011 RMK AO1 SLP178 T01670106
10278 20167 50000





000
SAUS43 KUNR 300600 COR
MTR2WX
METAR K2WX 300556Z AUTO 29011KT 17/11 A3011 RMK AO1 SLP178 T01670106
10278 20167 50000





000
SAUS43 KUNR 300559
MTRD07
METAR KD07 300556Z AUTO 15007KT 19/11 A3018 RMK AO1 SLP206 T01890111
10267 20172 51006





000
SAUS43 KUNR 300501
MTR2WX
METAR K2WX 300456Z AUTO 28011KT 18/11 A3012 RMK AO1 SLP180 T01780106





000
SAUS43 KUNR 300459
MTRD07
METAR KD07 300456Z AUTO 23005KT 17/12 A3017 RMK AO1 SLP207 T01720117





000
SAUS43 KUNR 300400
MTR2WX
METAR K2WX 300356Z AUTO 25005KT 21/11 A3012 RMK AO1 SLP180 T02060106





000
SAUS43 KUNR 300359
MTRD07
METAR KD07 300356Z AUTO 15009KT 20/12 A3017 RMK AO1 SLP204 T02000117





000
SAUS43 KUNR 300300
MTR2WX
METAR K2WX 300256Z AUTO 19005KT 22/11 A3011 RMK AO1 SLP178 T02170106
53002





000
SAUS43 KUNR 300259
MTRD07
METAR KD07 300256Z AUTO 16009KT 19/12 A3016 RMK AO1 SLP202 T01890117





000
SAUS43 KUNR 300200
MTR2WX
METAR K2WX 300156Z AUTO 16004KT 24/11 A3011 RMK AO1 SLP176 T02440106





000
SAUS43 KUNR 300159
MTRD07
METAR KD07 300156Z AUTO 14007KT 23/11 A3015 RMK AO1 SLP198 T02280111





000
SAUS43 KUNR 300100
MTR2WX
METAR K2WX 300056Z AUTO 19004KT 26/09 A3010 RMK AO1 SLP175 T02560094





000
SAUS43 KUNR 300059
MTRD07
METAR KD07 300056Z AUTO 15006KT 26/11 A3015 RMK AO1 SLP197 T02610106





000
SAUS43 KUNR 300000
MTR2WX
METAR K2WX 292356Z AUTO 15005KT 28/09 A3011 RMK AO1 SLP178 T02780094
10300 20250 57014





000
SAUS43 KUNR 292359
MTRD07
METAR KD07 292356Z AUTO 14005KT 27/11 A3016 RMK AO1 SLP202 T02670106
10283 20244 56013





000
SAUS43 KUNR 292300
MTR2WX
METAR K2WX 292256Z AUTO 12006KT 28/09 A3012 RMK AO1 SLP181 T02830094





000
SAUS43 KUNR 292259
MTRD07
METAR KD07 292256Z AUTO 13003KT 26/10 A3017 RMK AO1 SLP207 T02610100





000
SAUS43 KUNR 292200
MTR2WX
METAR K2WX 292156Z AUTO VRB03KT 28/10 A3014 RMK AO1 SLP188 T02780100





000
SAUS43 KUNR 292159
MTRD07
METAR KD07 292156Z AUTO 00000KT 27/10 A3018 RMK AO1 SLP211 T02720100





000
SAUS43 KUNR 292100
MTR2WX
METAR K2WX 292056Z AUTO 13010KT 29/11 A3015 RMK AO1 SLP191 T02890106
58007





000
SAUS43 KUNR 292059
MTRD07
METAR KD07 292056Z AUTO 08005KT 27/11 A3020 RMK AO1 SLP215 T02670106
57010





000
SAUS43 KUNR 292000
MTR2WX
METAR K2WX 291956Z AUTO VRB03KT 26/10 A3016 RMK AO1 SLP195 T02610100





000
SAUS43 KUNR 291959
MTRD07
METAR KD07 291956Z AUTO 18007KT 27/11 A3021 RMK AO1 SLP218 T02670111





000
SAUS43 KUNR 291900
MTR2WX
METAR K2WX 291856Z AUTO 21007KT 26/11 A3017 RMK AO1 SLP198 T02610106





000
SAUS43 KUNR 291859
MTRD07
METAR KD07 291856Z AUTO 25/11 A3022 RMK AO1 SLP223 T02500106





000
SAUS43 KUNR 291800
MTR2WX
METAR K2WX 291756Z AUTO 17007KT 26/11 A3017 RMK AO1 SLP199 T02610111
10272 20133 58008





000
SAUS43 KUNR 291759
MTRD07
METAR KD07 291756Z AUTO 16006KT 25/11 A3023 RMK AO1 SLP228 T02500111
10250 20133 58004





000
SAUS43 KUNR 291700
MTR2WX
METAR K2WX 291656Z AUTO 18011KT 25/12 A3019 RMK AO1 SLP204 T02500117





000
SAUS43 KUNR 291659
MTRD07
METAR KD07 291656Z AUTO 16006KT 23/11 A3024 RMK AO1 SLP230 T02330106





000
SAUS43 KUNR 291600
MTR2WX
METAR K2WX 291556Z AUTO 17008KT 22/12 A3019 RMK AO1 SLP206 T02220122





000
SAUS43 KUNR 291559
MTRD07
METAR KD07 291556Z AUTO 11004KT 23/11 A3024 RMK AO1 SLP231 T02330111





000
SAUS43 KUNR 291500
MTR2WX
METAR K2WX 291456Z AUTO 16006KT 21/12 A3020 RMK AO1 SLP211 T02060117
53003





000
SAUS43 KUNR 291459
MTRD07
METAR KD07 291456Z AUTO 20005KT 22/11 A3025 RMK AO1 SLP233 T02170111
58001





000
SAUS43 KUNR 291401
MTR2WX
METAR K2WX 291356Z AUTO 18004KT 17/12 A3019 RMK AO1 SLP209 T01720117





000
SAUS43 KUNR 291359
MTRD07
METAR KD07 291356Z AUTO 21004KT 19/11 A3025 RMK AO1 SLP234 T01890111





000
SAUS43 KUNR 291300
MTR2WX
METAR K2WX 291256Z AUTO 00000KT 16/12 A3020 RMK AO1 SLP210 T01560117





000
SAUS43 KUNR 291259
MTRD07
METAR KD07 291256Z AUTO 18005KT 16/12 A3025 RMK AO1 SLP234 T01560117





000
SAUS43 KUNR 291200
MTR2WX
METAR K2WX 291156Z AUTO 00000KT 13/11 A3019 RMK AO1 SLP210 T01330106
10172 20128 55000





000
SAUS43 KUNR 291159
MTRD07
METAR KD07 291156Z AUTO 18008KT 13/11 A3025 RMK AO1 SLP236 T01280106
10161 20122 53001





000
SAUS43 KUNR 291100
MTR2WX
METAR K2WX 291056Z AUTO 16004KT 14/11 A3019 RMK AO1 SLP206 T01390106





000
SAUS43 KUNR 291059
MTRD07
METAR KD07 291056Z AUTO 16007KT 13/10 A3024 RMK AO1 SLP232 T01280100





    US Dept of Commerce
    National Oceanic and Atmospheric Administration
    National Weather Service
    1325 East West Highway
    Silver Spring, MD 20910
    Page Author: NWS Internet Services Team
Disclaimer
Information Quality
Credits
Glossary
Privacy Policy
Freedom of Information Act (FOIA)
About Us
Career Opportunities